Latest Weather Observations for Gannett Cay

IDQ60801

Issued at 11:35 pm EST Wednesday 16 April 2014 (issued every 30 minutes, with the page automatically refreshed every 10 minutes)

About weather observations | Map of weather stations | Latest weather observations for QLD | Other Formats
Station Details ID: 200831 Name: GANNET CAY Lat: -21.98 Lon: 152.47 Height: 2.3 m
Data from the previous 72 hours. | See also: Recent months for locations in Queensland
Date/Time
EST
Temp
°C
App
Temp
°C
Dew
Point
Rel
Hum
%
Delta-T
°C
Wind Press
QNH
hPa
Press
MSL
hPa
Rain
since 9 am
mm
Dir
 
Spd
km/h
Gust
km/h
Spd
kts
Gust
kts
16/11:30pm 24.8 - - - - E 2 6 1 3 1015.1 - -
16/11:26pm 24.7 - - - - E 2 6 1 3 1015.2 1015.3 -
16/11:00pm 24.6 - - - - ESE 2 6 1 3 1015.3 - -
16/10:30pm 24.7 - - - - ESE 2 6 1 3 1015.5 - -
16/10:26pm 24.9 - - - - ESE 2 - 1 - - 1015.5 -
16/10:00pm 24.8 - - - - ESE 2 4 1 2 1015.5 - -
16/09:30pm 24.7 - - - - SE 2 4 1 2 1015.4 - -
16/09:26pm 24.8 - - - - SE 2 - 1 - - 1015.5 -
16/09:00pm 24.8 - - - - CALM 0 4 0 2 1015.3 - -
16/08:30pm 24.8 - - - - ESE 2 6 1 3 1015.1 - -
16/08:26pm 24.8 - - - - ESE 2 - 1 - - 1015.2 -
16/08:00pm 24.9 - - - - ESE 2 4 1 2 1015.1 - -
16/07:30pm 24.8 - - - - SE 2 6 1 3 1014.8 - -
16/07:26pm 24.8 - - - - SE 2 - 1 - - 1014.8 -
16/07:00pm 25.0 - - - - ESE 2 7 1 4 1014.3 - -
16/06:30pm 24.9 - - - - ESE 19 22 10 12 1014.0 - -
16/06:26pm 24.9 - - - - ESE 19 - 10 - - 1014.1 -
16/06:00pm 24.9 - - - - SE 20 24 11 13 1013.8 - -
16/05:30pm 25.1 - - - - SE 20 26 11 14 1013.5 - -
16/05:26pm 25.1 - - - - SE 20 - 11 - - 1013.6 -
16/05:00pm 25.5 - - - - SE 20 24 11 13 1013.4 - -
16/04:30pm 25.8 - - - - SSE 22 30 12 16 1013.2 - -
16/04:26pm 25.8 - - - - SE 22 - 12 - - 1013.3 -
16/04:00pm 26.0 - - - - SSE 22 26 12 14 1013.1 - -
16/03:30pm 26.1 - - - - SSE 20 24 11 13 1013.1 - -
16/03:26pm 26.0 - - - - SSE 20 - 11 - - 1013.2 -
16/03:00pm 26.0 - - - - SSE 20 24 11 13 1013.1 - -
16/02:30pm 26.3 - - - - SSE 20 22 11 12 1013.2 - -
16/02:26pm 26.1 - - - - SE 20 - 11 - - 1013.3 -
16/02:00pm 26.2 - - - - SSE 20 24 11 13 1013.3 - -
16/01:30pm 25.9 - - - - SE 20 24 11 13 1013.5 - -
16/01:26pm 25.9 - - - - SE 20 - 11 - - 1013.7 -
16/01:00pm 25.9 - - - - SE 19 22 10 12 1013.8 - -
16/12:30pm 25.9 - - - - SE 20 24 11 13 1013.9 - -
16/12:26pm 25.8 - - - - SE 20 - 11 - - 1014.0 -
16/12:00pm 25.6 - - - - ESE 22 26 12 14 1014.0 - -
16/11:30am 24.9 - - - - ESE 15 24 8 13 1014.4 - -
16/11:26am 24.9 - - - - SE 17 - 9 - - 1014.6 -
16/11:00am 25.8 - - - - SE 17 19 9 10 1014.8 - -
16/10:30am 25.8 - - - - ESE 17 20 9 11 1015.2 - -
16/10:26am 25.8 - - - - ESE 19 - 10 - - 1015.3 -
16/10:00am 25.9 - - - - ESE 17 20 9 11 1015.5 - -
16/09:30am 25.7 - - - - SE 19 20 10 11 1015.5 - -
16/09:26am 25.6 - - - - SE 19 - 10 - - 1015.7 -
16/09:00am 25.6 - - - - ESE 20 24 11 13 1015.4 - -
16/08:30am 25.5 - - - - SE 20 26 11 14 1015.1 - -
16/08:26am 25.4 - - - - SE 20 - 11 - - 1015.3 -
16/08:00am 25.4 - - - - SE 22 26 12 14 1015.2 - -
16/07:30am 25.1 - - - - SE 24 26 13 14 1015.0 - -
16/07:26am 25.3 - - - - SE 22 - 12 - - 1015.1 -
16/07:00am 25.1 - - - - ESE 20 24 11 13 1014.7 - -
16/06:30am 24.9 - - - - SE 20 24 11 13 1014.4 - -
16/06:26am 25.0 - - - - SE 20 22 11 12 1014.4 1014.5 -
16/06:00am 24.9 - - - - ESE 24 30 13 16 1014.1 - -
16/05:30am 25.0 - - - - ESE 22 26 12 14 1013.8 - -
16/05:26am 24.8 - - - - ESE 22 - 12 - - 1013.9 -
16/05:00am 24.8 - - - - SE 22 26 12 14 1013.7 - -
16/04:30am 24.8 - - - - SE 26 32 14 17 1013.4 - -
16/04:26am 24.7 - - - - SE 26 - 14 - - 1013.5 -
16/04:00am 24.9 - - - - SE 24 32 13 17 1013.4 - -
16/03:30am 24.7 - - - - ESE 24 28 13 15 1013.2 - -
16/03:26am 24.7 - - - - ESE 24 - 13 - - 1013.2 -
16/03:00am 24.8 - - - - ESE 26 32 14 17 1013.1 - -
16/02:30am 24.8 - - - - ESE 28 32 15 17 1013.1 - -
16/02:26am 24.9 - - - - ESE 28 - 15 - - 1013.1 -
16/02:00am 24.9 - - - - ESE 30 35 16 19 1013.0 - -
16/01:30am 25.1 - - - - ESE 30 35 16 19 1013.2 - -
16/01:26am 25.1 - - - - SE 32 - 17 - - 1013.3 -
16/01:00am 25.1 - - - - ESE 32 35 17 19 1013.5 - -
16/12:30am 25.1 - - - - SE 32 37 17 20 1013.9 - -
16/12:26am 25.1 - - - - SE 32 - 17 - - 1014.1 -
16/12:00am 25.1 - - - - SE 30 35 16 19 1014.1 - -
 
Date/Time
EST
Temp
°C
App
Temp
°C
Dew
Point
Rel
Hum
%
Delta-T
°C
Wind Press
QNH
hPa
Press
MSL
hPa
Rain
since 9 am
mm
Dir
 
Spd
km/h
Gust
km/h
Spd
kts
Gust
kts
15/11:30pm 25.2 - - - - SE 33 37 18 20 1014.2 - -
15/11:26pm 25.2 - - - - SE 32 - 17 - - 1014.4 -
15/11:00pm 25.3 - - - - SE 30 35 16 19 1014.4 - -
15/10:30pm 25.4 - - - - SE 30 35 16 19 1014.4 - -
15/10:26pm 25.2 - - - - SE 30 - 16 - - 1014.5 -
15/10:00pm 25.3 - - - - SE 33 39 18 21 1014.2 - -
15/09:30pm 25.3 - - - - SE 32 39 17 21 1014.4 - -
15/09:26pm 25.3 - - - - SE 32 - 17 - - 1014.5 -
15/09:00pm 25.4 - - - - SSE 32 39 17 21 1014.3 - -
15/08:30pm 25.4 - - - - SSE 32 37 17 20 1014.1 - -
15/08:26pm 25.4 - - - - SSE 32 - 17 - - 1014.3 -
15/08:00pm 25.5 - - - - SSE 33 35 18 19 1014.0 - -
15/07:30pm 25.3 - - - - SSE 32 37 17 20 1013.7 - -
15/07:26pm 25.4 - - - - SSE 32 - 17 - - 1013.7 -
15/07:00pm 25.5 - - - - SSE 35 39 19 21 1013.3 - -
15/06:30pm 25.3 - - - - SSE 33 39 18 21 1012.9 - -
15/06:26pm 25.5 - - - - SSE 33 - 18 - - 1013.0 -
15/06:00pm 25.4 - - - - SSE 35 41 19 22 1012.6 - -
15/05:30pm 25.5 - - - - SSE 39 43 21 23 1011.9 - -
15/05:26pm 25.5 - - - - SSE 39 - 21 - - 1012.0 -
15/05:00pm 25.5 - - - - SSE 37 43 20 23 1011.7 - -
15/04:30pm 25.7 - - - - SSE 37 43 20 23 1011.4 - -
15/04:26pm 25.8 - - - - SSE 37 - 20 - - 1011.4 -
15/04:00pm 25.6 - - - - SSE 37 41 20 22 1011.2 - -
15/03:30pm 26.0 - - - - SSE 35 39 19 21 1011.0 - -
15/03:26pm 25.9 - - - - SSE 35 - 19 - - 1011.1 -
15/03:00pm 26.1 - - - - SSE 35 41 19 22 1011.0 - -
15/02:30pm 26.0 - - - - SSE 35 39 19 21 1010.8 - -
15/02:26pm 26.1 - - - - SSE 33 - 18 - - 1010.9 -
15/02:00pm 26.1 - - - - SSE 33 39 18 21 1011.0 - -
15/01:30pm 25.9 - - - - SSE 33 37 18 20 1011.1 - -
15/01:26pm 26.0 - - - - SSE 33 - 18 - - 1011.3 -
15/01:00pm 26.0 - - - - SSE 35 39 19 21 1011.5 - -
15/12:30pm 26.2 - - - - SSE 35 43 19 23 1011.7 - -
15/12:26pm 26.0 - - - - SSE 35 - 19 - - 1011.8 -
15/12:00pm 26.1 - - - - SSE 32 37 17 20 1011.9 - -
15/11:30am 25.7 - - - - SSE 33 41 18 22 1012.5 - -
15/11:26am 25.7 - - - - SSE 35 - 19 - - 1012.6 -
15/11:00am 25.9 - - - - SSE 35 41 19 22 1012.7 - -
15/10:30am 25.7 - - - - SSE 37 43 20 23 1013.1 - -
15/10:26am 25.8 - - - - SSE 37 - 20 - - 1013.1 -
15/10:00am 25.7 - - - - SSE 37 44 20 24 1013.2 - -
15/09:30am 26.1 - - - - SSE 39 44 21 24 1013.2 - -
15/09:26am 26.0 - - - - SSE 39 - 21 - - 1013.2 -
15/09:00am 25.4 - - - - SSE 39 44 21 24 1012.9 - -
15/08:30am 25.2 - - - - S 35 41 19 22 1012.9 - -
15/08:26am 25.2 - - - - S 35 - 19 - - 1013.0 -
15/08:00am 24.6 - - - - S 33 41 18 22 1012.7 - -
15/07:30am 24.5 - - - - S 35 39 19 21 1012.6 - -
15/07:26am 24.3 - - - - S 37 - 20 - - 1012.6 -
15/07:00am 24.0 - - - - SSE 43 50 23 27 1012.3 - -
15/06:30am 25.0 - - - - S 39 44 21 24 1012.0 - -
15/06:26am 25.2 - - - - S 37 - 20 - - 1012.0 -
15/06:00am 24.6 - - - - SSE 41 50 22 27 1011.6 - -
15/05:30am 24.9 - - - - S 39 46 21 25 1011.1 - -
15/05:26am 24.9 - - - - S 41 - 22 - - 1011.1 -
15/05:00am 25.3 - - - - S 43 50 23 27 1010.8 - -
15/04:30am 24.8 - - - - SSE 35 39 19 21 1010.6 - -
15/04:26am 24.4 - - - - SSE 37 - 20 - - 1010.7 -
15/04:00am 24.7 - - - - S 39 48 21 26 1010.3 - -
15/03:30am 23.7 - - - - S 43 50 23 27 1010.3 - -
15/03:26am 23.4 - - - - S 43 - 23 - - 1010.4 -
15/03:00am 25.1 - - - - S 43 46 23 25 1010.1 - -
15/02:30am 24.9 - - - - S 43 50 23 27 1010.3 - -
15/02:26am 24.9 - - - - S 44 - 24 - - 1010.4 -
15/02:00am 25.2 - - - - S 44 50 24 27 1010.4 - -
15/01:30am 24.9 - - - - S 41 50 22 27 1010.5 - -
15/01:26am 24.8 - - - - S 43 - 23 - - 1010.6 -
15/01:00am 24.5 - - - - S 39 50 21 27 1010.6 - -
15/12:30am 24.2 - - - - S 46 61 25 33 1010.7 - -
15/12:26am 23.8 - - - - S 48 - 26 - - 1010.8 -
15/12:00am 24.8 - - - - S 41 48 22 26 1010.8 - -
 
Date/Time
EST
Temp
°C
App
Temp
°C
Dew
Point
Rel
Hum
%
Delta-T
°C
Wind Press
QNH
hPa
Press
MSL
hPa
Rain
since 9 am
mm
Dir
 
Spd
km/h
Gust
km/h
Spd
kts
Gust
kts
14/11:30pm 25.2 - - - - S 46 56 25 30 1010.5 - -
14/11:26pm 25.2 - - - - S 43 - 23 - - 1010.7 -
14/11:00pm 25.0 - - - - S 43 50 23 27 1010.8 - -
14/10:30pm 25.1 - - - - S 43 52 23 28 1010.9 - -
14/10:26pm 25.1 - - - - S 44 - 24 - - 1011.0 -
14/10:00pm 24.0 - - - - S 50 65 27 35 1010.7 - -
14/09:56pm 24.9 - - - - S 46 65 25 35 1010.6 - -
14/09:30pm 24.7 - - - - S 44 54 24 29 1010.6 - -
14/09:26pm 24.7 - - - - S 44 - 24 - - 1010.7 -
14/09:00pm 24.1 - - - - S 48 59 26 32 1010.6 - -
14/08:30pm 25.0 - - - - S 46 52 25 28 1010.4 - -
14/08:26pm 25.1 - - - - S 46 - 25 - - 1010.5 -
14/08:00pm 24.8 - - - - S 41 52 22 28 1010.0 - -
14/07:30pm 24.2 - - - - S 50 65 27 35 1009.3 - -
14/07:26pm 24.3 - - - - S 50 - 27 - - 1009.4 -
14/07:00pm 25.0 - - - - SSW 50 59 27 32 1008.8 - -
14/06:30pm 25.5 - - - - S 48 57 26 31 1008.1 - -
14/06:26pm 25.4 - - - - S 46 - 25 - - 1008.2 -
14/06:00pm 25.6 - - - - S 48 56 26 30 1007.7 - -
14/05:30pm 24.5 - - - - S 41 50 22 27 1007.3 - -
14/05:26pm 24.1 - - - - S 44 - 24 - - 1007.4 -
14/05:00pm 23.9 - - - - SSW 48 61 26 33 1006.5 - -
14/04:30pm 24.1 - - - - SSW 46 54 25 29 1006.1 - -
14/04:26pm 24.1 - - - - SSW 48 - 26 - - 1006.2 -
14/04:00pm 23.8 - - - - SSW 44 54 24 29 1005.6 - -
14/03:30pm 24.4 - - - - SSW 41 50 22 27 1005.0 - -
14/03:26pm 24.1 - - - - SSW 41 - 22 - - 1005.1 -
14/03:00pm 24.8 - - - - SW 41 50 22 27 1004.5 - -
14/02:30pm 24.7 - - - - SSW 41 50 22 27 1004.3 - -
14/02:26pm 24.6 - - - - SSW 41 - 22 - - 1004.5 -
14/02:00pm 24.8 - - - - SW 39 46 21 25 1004.2 - -
14/01:30pm 25.3 - - - - SW 37 46 20 25 1003.7 - -
14/01:26pm 25.6 - - - - SW 41 - 22 - - 1003.9 -
14/01:00pm 25.7 - - - - SW 43 52 23 28 1003.4 - -
14/12:30pm 25.7 - - - - SW 37 44 20 24 1003.1 - -
14/12:26pm 25.8 - - - - SW 37 - 20 - - 1003.3 -
14/12:23pm 25.8 - - - - SW 35 39 19 21 1003.1 - -
14/12:00pm 25.7 - - - - S 37 46 20 25 1002.4 - -
14/11:30am 25.5 - - - - S 46 56 25 30 1001.5 - -
14/11:26am 25.9 - - - - S 46 - 25 - - 1001.7 -
14/11:00am 25.5 - - - - S 52 61 28 33 1001.7 - -
14/10:30am 25.3 - - - - S 61 82 33 44 1001.3 - -
14/10:26am 25.2 - - - - S 65 - 35 - - 1001.8 -
14/10:00am 25.2 - - - - S 69 93 37 50 1001.1 - -
14/09:42am 25.1 - - - - S 59 78 32 42 1000.1 - -
14/09:35am 25.6 - - - - S 56 61 30 33 999.6 - -
14/09:30am 25.8 - - - - SSW 33 52 18 28 999.6 - -
14/09:29am 26.2 - - - - SSW 32 43 17 23 999.6 - -
14/09:26am 26.1 - - - - SW 32 - 17 - - 999.7 -
14/09:00am 26.0 - - - - SW 19 22 10 12 998.6 - -
14/08:30am 26.0 - - - - W 33 37 18 20 998.2 - -
14/08:26am 26.1 - - - - WNW 26 - 14 - - 998.4 -
14/08:20am 26.0 - - - - WNW 24 37 13 20 998.0 - -
14/08:00am 26.4 - - - - NNW 37 44 20 24 998.4 - -
14/07:30am 26.4 - - - - N 46 57 25 31 997.7 - -
14/07:26am 26.3 - - - - N 44 - 24 - - 997.9 -
14/07:00am 26.4 - - - - N 48 59 26 32 998.2 - -
14/06:30am 26.8 - - - - N 57 69 31 37 998.1 - -
14/06:26am 26.8 - - - - N 56 - 30 - - 998.3 -
14/06:05am 26.8 - - - - N 46 65 25 35 998.7 - -
14/06:00am 26.8 - - - - N 46 54 25 29 998.9 - -
14/05:30am 27.0 - - - - N 48 57 26 31 998.8 - -
14/05:26am 27.0 - - - - N 48 - 26 - - 999.1 -
14/05:00am 26.6 - - - - NNE 48 57 26 31 998.8 - -
14/04:30am 25.9 - - - - N 56 67 30 36 999.1 - -
14/04:26am 25.7 - - - - N 57 - 31 - - 999.5 -
14/04:20am 25.5 - - - - N 63 76 34 41 999.3 - -
14/04:11am 25.4 - - - - NE 50 76 27 41 999.3 - -
14/04:00am 25.4 - - - - NE 52 59 28 32 999.0 - -
14/03:30am 25.4 - - - - NE 54 65 29 35 1000.4 - -
14/03:26am 25.7 - - - - NE 54 - 29 - - 1000.7 -
14/03:00am 25.8 - - - - NE 54 65 29 35 1001.3 - -
14/02:39am 25.7 - - - - NE 50 61 27 33 1002.0 - -
14/02:38am 25.7 - - - - E 35 61 19 33 1001.8 - -
14/02:30am 25.7 - - - - E 28 48 15 26 1001.8 - -
14/02:26am 25.9 - - - - NE 41 - 22 - - 1002.6 -
14/02:00am 26.1 - - - - NE 37 44 20 24 1003.7 - -
14/01:30am 26.1 - - - - ENE 33 39 18 21 1003.8 - -
14/01:26am 26.0 - - - - ENE 33 - 18 - - 1004.1 -
14/01:00am 25.9 - - - - NE 32 35 17 19 1004.3 - -
14/12:30am 26.0 - - - - NNE 28 35 15 19 1005.5 - -
14/12:26am 25.7 - - - - NNE 26 - 14 - - 1005.7 -
14/12:00am 25.1 - - - - ENE 13 19 7 10 1006.3 - -

Other Formats:

Comma delimited format used in spreadsheet applications
http://www.bom.gov.au/fwo/IDQ60801/IDQ60801.94379.axf

JavaScript Object Notation format (JSON) in row-major order
http://www.bom.gov.au/fwo/IDQ60801/IDQ60801.94379.json